首页
METAR-TAF:

METAR-TAF

机场 :

瓦岱國際機場

永珍, 老挝

纬度: 17-57N, 经度: 102-34E, 海拔: 171米

当前天气观测

该预报发布于28分钟前的04:00 UTC
风速2节,风向
温度 32°C
湿度 59%
气压 1014 hPa
能見度: 7000
少量云层高于2000英尺
少量云层高于20000英尺

METAR: VLVT 180400Z 09002KT 7000 FEW020 FEW200 32/23 Q1014 NOSIG

时间: 11:28 (04:28 UTC)

预报

该预报发布于5小时和28分钟前的23:00 UTC
预报有效从18日的 00点(UTC)到 18日的 24点(UTC)
风速4节,风向西转西南
能見度: 5000
少量云层高于1600英尺
散云层高于5000英尺
散云层高于10000英尺
轻雾
短暂存在
从 18日的 06点(UTC)到 18日的 11点(UTC)
能見度: 8000
散云层高于1600英尺
散云层高于5000英尺
散云层高于10000英尺

TAF: VLVT 172300Z 1800/1824 24004KT 5000 BR FEW016 SCT050 SCT100 TEMPO 1806/1811 8000 SCT016 SCT050 SCT100

超过4000个机场的气象观测和天气预报(METAR&TAF报告)。

可查询的气象台以黄色和红色小点在地图上表示。

将鼠标移到小点上方,可查看气象台名称。

然后点击查看天气观测和预报。

如需切换地图:点击带黑十字的绿色按钮放大地图;点击带横线的绿色按钮缩小地图;或者点击绿色箭头查看邻近地区的地图。


METAR-TAF: